Time;durP1;ratioP1;P1;durP2;ratioP2;P2;SDS_P1;SDS_P2;PMS_P1;PMS_P2;Temp;Humidity;BMP_temperature;BMP_pressure;BME280_temperature;BME280_humidity;BME280_pressure;Samples;Min_cycle;Max_cycle;Signal;HPM_P1;HPM_P2
2022/07/24 00:00:34;;;;;;;8.45;7.55;;;23.90;96.70;;;;;;5053212;28;20104;-58
2022/07/24 00:03:00;;;;;;;8.18;6.93;;;23.80;97.00;;;;;;5051932;28;20052;-60
2022/07/24 00:05:25;;;;;;;;;;;23.70;97.30;;;;;;5056845;28;20564;-60
2022/07/24 00:07:51;;;;;;;11.10;6.88;;;23.60;97.60;;;;;;5056723;28;19915;-59
2022/07/24 00:10:16;;;;;;;;;;;23.80;97.40;;;;;;5056042;28;20021;-59
2022/07/24 00:12:42;;;;;;;10.60;7.55;;;23.90;97.10;;;;;;5056751;28;19905;-60
2022/07/24 00:15:08;;;;;;;;;;;23.80;97.30;;;;;;5057222;28;20072;-60
2022/07/24 00:17:33;;;;;;;13.18;7.43;;;23.70;97.80;;;;;;5056919;28;20313;-60
2022/07/24 00:19:59;;;;;;;;;;;23.60;98.20;;;;;;5056964;28;20029;-59
2022/07/24 00:22:24;;;;;;;10.20;6.82;;;23.50;98.60;;;;;;5055479;28;20045;-60
2022/07/24 00:24:50;;;;;;;10.13;7.35;;;23.40;98.80;;;;;;5055338;28;20025;-60
2022/07/24 00:27:16;;;;;;;11.45;7.43;;;23.40;99.00;;;;;;5056613;28;20119;-61
2022/07/24 00:29:42;;;;;;;10.32;8.52;;;23.50;99.00;;;;;;5055829;28;20553;-60
2022/07/24 00:32:07;;;;;;;9.95;7.40;;;23.60;98.90;;;;;;5057164;28;20052;-60
2022/07/24 00:34:33;;;;;;;;;;;23.50;98.90;;;;;;5057346;28;20029;-59
2022/07/24 00:36:58;;;;;;;9.75;7.80;;;23.40;98.80;;;;;;5057180;28;19904;-61
2022/07/24 00:39:24;;;;;;;15.68;8.60;;;23.40;98.90;;;;;;5056881;28;20489;-59
2022/07/24 00:41:52;;;;;;;;;;;23.40;99.10;;;;;;5056802;28;20033;-59
2022/07/24 00:44:19;;;;;;;12.00;7.75;;;23.30;99.50;;;;;;5056480;28;19912;-60
2022/07/24 00:46:45;;;;;;;9.88;7.20;;;23.30;99.80;;;;;;5056153;28;20074;-59
2022/07/24 00:49:14;;;;;;;7.70;6.97;;;23.30;99.90;;;;;;5056283;28;20471;-60
2022/07/24 00:51:41;;;;;;;9.75;7.70;;;23.20;99.90;;;;;;5056117;28;20056;-60
2022/07/24 00:54:08;;;;;;;11.15;7.55;;;23.10;99.90;;;;;;5055902;28;20021;-59
2022/07/24 00:56:34;;;;;;;9.55;7.63;;;23.10;99.90;;;;;;5054465;28;20060;-59
2022/07/24 00:59:00;;;;;;;10.90;8.43;;;23.10;99.90;;;;;;5055804;28;20028;-60
2022/07/24 01:01:26;;;;;;;;;;;23.10;99.90;;;;;;5056542;28;20385;-60
2022/07/24 01:03:51;;;;;;;10.15;7.78;;;23.10;99.90;;;;;;5055533;28;19909;-58
2022/07/24 01:06:17;;;;;;;;;;;23.10;99.90;;;;;;5054823;28;20175;-59
2022/07/24 01:08:43;;;;;;;7.90;6.70;;;23.00;99.90;;;;;;5055571;28;19905;-59
2022/07/24 01:11:08;;;;;;;;;;;23.00;99.90;;;;;;5056031;28;20094;-60
2022/07/24 01:13:35;;;;;;;11.32;7.28;;;22.90;99.90;;;;;;5055377;28;19905;-60
2022/07/24 01:16:00;;;;;;;13.82;7.30;;;22.80;99.90;;;;;;5054362;28;20474;-60
2022/07/24 01:18:26;;;;;;;8.65;7.78;;;22.70;99.90;;;;;;5054045;28;20032;-61
2022/07/24 01:20:52;;;;;;;10.45;7.53;;;22.70;99.90;;;;;;5054030;28;20032;-59
2022/07/24 01:23:17;;;;;;;;;;;22.70;99.90;;;;;;5055731;28;20033;-60
2022/07/24 01:25:43;;;;;;;10.50;7.53;;;22.60;99.90;;;;;;5055169;28;19913;-61
2022/07/24 01:28:09;;;;;;;9.25;7.93;;;22.60;99.90;;;;;;5055459;28;20028;-59
2022/07/24 01:30:34;;;;;;;9.48;7.82;;;22.60;99.90;;;;;;5055350;28;20025;-59
2022/07/24 01:33:00;;;;;;;9.93;6.80;;;22.60;99.90;;;;;;5056029;28;20036;-59
2022/07/24 01:35:26;;;;;;;;;;;22.50;99.90;;;;;;5054722;28;20074;-57
2022/07/24 01:37:52;;;;;;;11.98;7.90;;;22.50;99.90;;;;;;5055526;28;19916;-60
2022/07/24 01:40:18;;;;;;;9.23;7.85;;;22.50;99.90;;;;;;5055391;28;20028;-59
2022/07/24 01:42:44;;;;;;;;;;;22.40;99.90;;;;;;5054171;28;20029;-58
2022/07/24 01:45:10;;;;;;;9.75;7.22;;;22.30;99.90;;;;;;5055138;28;19911;-60
2022/07/24 01:47:35;;;;;;;8.98;8.07;;;22.30;99.90;;;;;;5054760;28;20109;-59
2022/07/24 01:50:01;;;;;;;;;;;22.30;99.90;;;;;;5055579;28;20029;-62
2022/07/24 01:52:26;;;;;;;9.43;7.82;;;22.30;99.90;;;;;;5055364;28;20019;-58
2022/07/24 01:54:53;;;;;;;9.60;7.57;;;22.30;99.90;;;;;;5053496;28;20031;-60
2022/07/24 01:57:18;;;;;;;;;;;22.30;99.90;;;;;;5055249;28;20107;-60
2022/07/24 01:59:44;;;;;;;9.93;7.65;;;22.30;99.90;;;;;;5053754;28;19954;-60
2022/07/24 02:02:09;;;;;;;10.05;7.28;;;22.30;99.90;;;;;;5054885;28;20024;-58
2022/07/24 02:04:35;;;;;;;;;;;22.30;99.90;;;;;;5067713;22;20037;-65
2022/07/24 02:07:00;;;;;;;10.75;7.45;;;22.30;99.90;;;;;;5054159;28;19913;-65
2022/07/24 02:09:26;;;;;;;8.18;6.80;;;22.30;99.90;;;;;;5052900;28;20017;-65
2022/07/24 02:11:52;;;;;;;;;;;22.30;99.90;;;;;;5054632;28;20036;-67
2022/07/24 02:14:18;;;;;;;10.05;6.90;;;22.20;99.90;;;;;;5054060;28;20059;-66
2022/07/24 02:16:43;;;;;;;;;;;22.20;99.90;;;;;;5054741;28;20381;-66
2022/07/24 02:19:09;;;;;;;8.40;6.82;;;22.20;99.90;;;;;;5055018;28;19912;-67
2022/07/24 02:21:34;;;;;;;9.50;6.97;;;22.10;99.90;;;;;;5055335;28;20033;-66
2022/07/24 02:24:00;;;;;;;7.97;7.18;;;22.20;99.90;;;;;;5053915;28;20031;-65
2022/07/24 02:26:27;;;;;;;9.10;7.00;;;22.20;99.90;;;;;;5053959;28;20033;-67
2022/07/24 02:28:52;;;;;;;10.95;7.90;;;22.20;99.90;;;;;;5054565;28;20033;-67
2022/07/24 02:31:18;;;;;;;10.25;6.68;;;22.10;99.90;;;;;;5054074;28;20078;-65
2022/07/24 02:33:44;;;;;;;7.30;6.30;;;22.20;99.90;;;;;;5053095;28;20057;-65
2022/07/24 02:36:09;;;;;;;9.00;7.00;;;22.20;99.90;;;;;;5054556;28;20413;-65
2022/07/24 02:38:35;;;;;;;10.15;7.28;;;22.20;99.90;;;;;;5054490;28;20036;-65
2022/07/24 02:41:01;;;;;;;;;;;22.30;99.90;;;;;;5054104;28;20481;-66
2022/07/24 02:43:27;;;;;;;9.23;7.43;;;22.30;99.90;;;;;;5053965;28;19955;-65
2022/07/24 02:45:52;;;;;;;11.32;8.20;;;22.30;99.90;;;;;;5053509;28;20386;-65
2022/07/24 02:48:18;;;;;;;10.48;7.32;;;22.20;99.90;;;;;;5053363;28;20029;-65
2022/07/24 02:50:43;;;;;;;9.40;7.63;;;22.10;99.90;;;;;;5053648;28;20428;-66
2022/07/24 02:53:09;;;;;;;8.15;7.15;;;22.20;99.90;;;;;;5053588;28;20588;-65
2022/07/24 02:55:35;;;;;;;9.90;7.13;;;22.10;99.90;;;;;;5053132;28;20455;-66
2022/07/24 02:58:00;;;;;;;8.35;6.93;;;22.00;99.90;;;;;;5053500;28;20048;-65
2022/07/24 03:00:26;;;;;;;10.55;7.30;;;22.00;99.90;;;;;;5053255;28;20059;-65
2022/07/24 03:02:51;;;;;;;8.48;7.50;;;22.00;99.90;;;;;;5053311;28;20504;-65
2022/07/24 03:05:17;;;;;;;9.93;7.45;;;21.90;99.90;;;;;;5053278;28;20025;-65
2022/07/24 03:07:43;;;;;;;12.95;7.78;;;21.90;99.90;;;;;;5051987;28;20029;-65
2022/07/24 03:10:12;;;;;;;9.15;7.47;;;21.80;99.90;;;;;;5053364;28;20025;-65
2022/07/24 03:12:37;;;;;;;10.85;8.68;;;21.70;99.90;;;;;;5053064;28;20037;-64
2022/07/24 03:15:03;;;;;;;9.75;8.27;;;21.70;99.90;;;;;;5053157;28;20033;-65
2022/07/24 03:17:29;;;;;;;10.38;8.30;;;21.60;99.90;;;;;;5053102;28;20100;-65
2022/07/24 03:19:54;;;;;;;8.00;7.20;;;21.60;99.90;;;;;;5051809;28;20381;-65
2022/07/24 03:22:20;;;;;;;9.65;7.15;;;21.60;99.90;;;;;;5053383;28;20109;-66
2022/07/24 03:24:45;;;;;;;11.20;7.68;;;21.60;99.90;;;;;;5053528;28;20044;-65
2022/07/24 03:27:11;;;;;;;10.07;7.63;;;21.50;99.90;;;;;;5053480;28;20037;-65
2022/07/24 03:29:36;;;;;;;12.73;7.78;;;21.50;99.90;;;;;;5052096;28;20025;-65
2022/07/24 03:32:02;;;;;;;13.30;7.82;;;21.50;99.90;;;;;;5053143;28;20036;-66
2022/07/24 03:34:28;;;;;;;9.52;7.15;;;21.50;99.90;;;;;;5052857;28;20021;-65
2022/07/24 03:36:53;;;;;;;13.57;8.18;;;21.50;99.90;;;;;;5053010;28;20482;-65
2022/07/24 03:39:19;;;;;;;10.45;7.35;;;21.40;99.90;;;;;;5056111;28;20351;-66
2022/07/24 03:41:44;;;;;;;11.57;7.35;;;21.40;99.90;;;;;;5057012;28;20063;-66
2022/07/24 03:44:10;;;;;;;8.82;7.45;;;21.50;99.90;;;;;;5057343;28;20477;-66
2022/07/24 03:46:35;;;;;;;10.32;8.05;;;21.50;99.90;;;;;;5057192;28;20033;-66
2022/07/24 03:49:01;;;;;;;10.02;7.03;;;21.40;99.90;;;;;;5056988;28;20017;-67
2022/07/24 03:51:27;;;;;;;10.07;7.50;;;21.30;99.90;;;;;;5056891;28;20104;-66
2022/07/24 03:53:53;;;;;;;12.93;7.80;;;21.30;99.90;;;;;;5056804;28;20052;-65
2022/07/24 03:56:18;;;;;;;10.30;7.60;;;21.20;99.90;;;;;;5057103;28;20040;-66
2022/07/24 03:58:44;;;;;;;12.65;7.95;;;21.20;99.90;;;;;;5055698;28;20032;-65
2022/07/24 04:01:10;;;;;;;9.35;7.32;;;21.20;99.90;;;;;;5057233;28;20078;-66
2022/07/24 04:03:36;;;;;;;10.43;8.07;;;21.20;99.90;;;;;;5056996;28;20448;-66
2022/07/24 04:06:03;;;;;;;8.43;7.32;;;21.10;99.90;;;;;;5056415;28;20044;-66
2022/07/24 04:08:29;;;;;;;12.80;7.63;;;21.10;99.90;;;;;;5056874;28;20469;-66
2022/07/24 04:10:56;;;;;;;11.38;7.82;;;21.20;99.90;;;;;;5056923;28;20032;-66
2022/07/24 04:13:27;;;;;;;8.43;7.50;;;21.20;99.90;;;;;;5057471;28;20021;-66
2022/07/24 04:15:53;;;;;;;10.68;7.85;;;21.20;99.90;;;;;;5055576;28;20021;-66
2022/07/24 04:18:19;;;;;;;11.45;7.95;;;21.10;99.90;;;;;;5057126;28;20495;-67
2022/07/24 04:20:44;;;;;;;9.27;7.85;;;21.10;99.90;;;;;;5056772;28;20112;-66
2022/07/24 04:23:10;;;;;;;12.57;7.93;;;21.10;99.90;;;;;;5057167;28;20040;-66
2022/07/24 04:25:35;;;;;;;9.35;7.40;;;21.00;99.90;;;;;;5057951;28;20083;-66
2022/07/24 04:28:01;;;;;;;10.27;8.02;;;20.90;99.90;;;;;;5058211;28;20021;-65
2022/07/24 04:30:27;;;;;;;11.13;7.85;;;20.90;99.90;;;;;;5056772;28;20557;-65
2022/07/24 04:32:53;;;;;;;10.25;7.85;;;20.90;99.90;;;;;;5056368;28;20069;-65
2022/07/24 04:35:19;;;;;;;11.75;7.90;;;20.80;99.90;;;;;;5055128;28;20457;-64
2022/07/24 04:37:45;;;;;;;9.07;7.90;;;20.90;99.90;;;;;;5056248;28;20037;-66
2022/07/24 04:40:12;;;;;;;10.93;8.88;;;20.90;99.90;;;;;;5056401;28;20025;-65
2022/07/24 04:42:38;;;;;;;10.73;8.73;;;20.90;99.90;;;;;;5055996;28;20082;-66
2022/07/24 04:45:05;;;;;;;8.82;7.43;;;21.00;99.90;;;;;;5056195;28;20479;-65
2022/07/24 04:47:30;;;;;;;11.48;7.57;;;20.90;99.90;;;;;;5055923;28;20505;-65
2022/07/24 04:49:56;;;;;;;9.73;7.55;;;21.00;99.90;;;;;;5056297;28;20029;-66
2022/07/24 04:52:22;;;;;;;10.15;8.10;;;21.00;99.90;;;;;;5056127;28;20036;-66
2022/07/24 04:54:47;;;;;;;9.60;7.45;;;21.00;99.90;;;;;;5055895;28;20021;-65
2022/07/24 04:57:13;;;;;;;9.13;7.50;;;21.00;99.90;;;;;;5055974;28;20112;-66
2022/07/24 04:59:38;;;;;;;9.60;7.53;;;21.00;99.90;;;;;;5056027;28;20025;-66
2022/07/24 05:02:04;;;;;;;11.07;7.97;;;21.00;99.90;;;;;;5055878;28;20037;-66
2022/07/24 05:04:29;;;;;;;10.27;8.20;;;21.10;99.90;;;;;;5055782;28;20117;-65
2022/07/24 05:06:55;;;;;;;10.65;7.78;;;21.10;99.90;;;;;;5056296;28;20381;-65
2022/07/24 05:09:20;;;;;;;10.15;7.32;;;21.20;99.90;;;;;;5054720;28;20044;-65
2022/07/24 05:11:46;;;;;;;10.13;7.05;;;21.30;99.90;;;;;;5055957;28;20041;-65
2022/07/24 05:14:11;;;;;;;9.95;7.28;;;21.20;99.90;;;;;;5056280;28;20043;-65
2022/07/24 05:16:37;;;;;;;9.10;7.25;;;21.20;99.90;;;;;;5054897;28;20036;-65
2022/07/24 05:19:03;;;;;;;9.93;7.22;;;21.30;99.90;;;;;;5056019;28;20078;-65
2022/07/24 05:21:29;;;;;;;;;;;21.50;99.90;;;;;;5056219;28;20029;-65
2022/07/24 05:23:54;;;;;;;12.10;7.35;;;21.50;99.90;;;;;;5055749;28;19905;-65
2022/07/24 05:26:20;;;;;;;10.48;7.65;;;21.50;99.90;;;;;;5055406;28;20025;-66
2022/07/24 05:28:45;;;;;;;8.80;6.97;;;21.50;99.90;;;;;;5055520;28;20478;-66
2022/07/24 05:31:11;;;;;;;11.15;7.75;;;21.50;99.90;;;;;;5055685;28;20017;-66
2022/07/24 05:33:37;;;;;;;10.10;6.88;;;21.50;99.90;;;;;;5055247;28;20529;-66
2022/07/24 05:36:03;;;;;;;10.80;7.32;;;21.50;99.90;;;;;;5055370;28;20029;-66
2022/07/24 05:38:29;;;;;;;8.20;6.90;;;21.80;99.90;;;;;;5055788;28;20102;-66
2022/07/24 05:40:55;;;;;;;10.30;7.55;;;21.80;99.90;;;;;;5055376;28;20021;-66
2022/07/24 05:43:20;;;;;;;;;;;21.90;99.90;;;;;;5055629;28;20036;-66
2022/07/24 05:45:46;;;;;;;9.15;7.20;;;21.90;99.90;;;;;;5055156;28;19908;-66
2022/07/24 05:48:12;;;;;;;7.95;6.85;;;21.80;99.90;;;;;;5055298;28;20488;-66
2022/07/24 05:50:37;;;;;;;8.98;7.03;;;21.90;99.90;;;;;;5055258;28;20033;-66
2022/07/24 05:53:03;;;;;;;8.75;7.20;;;22.00;99.90;;;;;;5055478;28;20043;-66
2022/07/24 05:55:29;;;;;;;8.50;6.85;;;22.00;99.90;;;;;;5054670;28;20029;-65
2022/07/24 05:57:55;;;;;;;9.57;6.75;;;22.00;99.90;;;;;;5054667;28;20052;-65
2022/07/24 06:00:21;;;;;;;6.90;6.20;;;22.20;99.90;;;;;;5052984;28;20037;-64
2022/07/24 06:02:47;;;;;;;9.25;6.88;;;22.30;99.90;;;;;;5052596;28;20421;-64
2022/07/24 06:05:13;;;;;;;8.48;6.15;;;22.40;99.90;;;;;;5053985;28;20036;-65
2022/07/24 06:07:39;;;;;;;8.90;6.57;;;22.40;99.90;;;;;;5054143;28;20033;-64
2022/07/24 06:10:05;;;;;;;7.38;6.47;;;22.50;99.90;;;;;;5054145;28;20021;-64
2022/07/24 06:12:31;;;;;;;8.15;6.35;;;22.40;99.90;;;;;;5053705;28;20036;-64
2022/07/24 06:14:56;;;;;;;10.10;6.47;;;22.40;99.90;;;;;;5054095;28;20496;-64
2022/07/24 06:17:22;;;;;;;8.95;6.30;;;22.50;99.90;;;;;;5053859;28;20393;-64
2022/07/24 06:19:47;;;;;;;;;;;22.50;99.90;;;;;;5054249;28;20044;-65
2022/07/24 06:22:13;;;;;;;7.43;6.63;;;22.50;99.90;;;;;;5053895;28;19954;-66
2022/07/24 06:24:38;;;;;;;11.80;7.65;;;22.50;99.90;;;;;;5053585;28;20021;-66
2022/07/24 06:27:04;;;;;;;9.25;6.72;;;22.50;99.90;;;;;;5052246;28;20037;-65
2022/07/24 06:29:30;;;;;;;;;;;22.60;99.90;;;;;;5054353;28;20055;-65
2022/07/24 06:31:56;;;;;;;10.85;6.25;;;22.80;99.90;;;;;;5053836;28;20014;-65
2022/07/24 06:34:23;;;;;;;8.23;6.07;;;22.80;99.90;;;;;;5054397;28;20063;-66
2022/07/24 06:36:50;;;;;;;12.80;6.43;;;22.80;99.90;;;;;;5054256;28;20036;-65
2022/07/24 06:39:16;;;;;;;8.80;6.57;;;22.90;99.90;;;;;;5053458;28;20029;-65
2022/07/24 06:41:41;;;;;;;6.53;5.78;;;22.80;99.90;;;;;;5053393;28;20150;-64
2022/07/24 06:44:07;;;;;;;8.40;5.57;;;22.90;99.90;;;;;;5053219;28;20028;-65
2022/07/24 06:46:33;;;;;;;9.48;6.55;;;23.00;99.90;;;;;;5053651;28;20380;-65
2022/07/24 06:48:58;;;;;;;;;;;23.10;99.90;;;;;;5052383;28;20031;-66
2022/07/24 06:51:24;;;;;;;10.52;6.25;;;23.10;99.90;;;;;;5053469;28;20003;-65
2022/07/24 06:53:49;;;;;;;8.73;6.50;;;23.20;99.90;;;;;;5053278;28;20029;-65
2022/07/24 06:56:15;;;;;;;;;;;23.30;99.90;;;;;;5053510;28;20037;-65
2022/07/24 06:58:41;;;;;;;7.60;6.03;;;23.30;99.90;;;;;;5053193;28;19908;-65
2022/07/24 07:01:06;;;;;;;8.27;6.72;;;23.40;99.90;;;;;;5053127;28;20083;-64
2022/07/24 07:03:32;;;;;;;;;;;23.50;99.90;;;;;;5053497;28;20094;-65
2022/07/24 07:05:57;;;;;;;12.02;6.38;;;23.60;99.90;;;;;;5052963;28;19919;-64
2022/07/24 07:08:23;;;;;;;;;;;23.60;99.90;;;;;;5053493;28;20096;-64
2022/07/24 07:10:48;;;;;;;8.88;6.15;;;23.70;99.90;;;;;;5053454;28;20017;-65
2022/07/24 07:13:14;;;;;;;;;;;23.80;99.90;;;;;;5052595;28;20029;-65
2022/07/24 07:15:39;;;;;;;6.95;5.97;;;23.90;99.90;;;;;;5052790;28;19954;-65
2022/07/24 07:18:05;;;;;;;;;;;23.90;99.90;;;;;;5053610;28;20099;-64
2022/07/24 07:20:30;;;;;;;13.07;6.63;;;24.00;99.90;;;;;;5053105;28;19924;-63
2022/07/24 07:22:56;;;;;;;;;;;24.00;99.90;;;;;;5052093;28;20021;-65
2022/07/24 07:25:22;;;;;;;8.38;5.95;;;24.20;99.90;;;;;;5052830;28;19915;-65
2022/07/24 07:27:47;;;;;;;;;;;24.20;99.90;;;;;;5053595;28;20029;-64
2022/07/24 07:30:13;;;;;;;8.60;5.80;;;24.30;99.80;;;;;;5051694;28;19912;-67
2022/07/24 07:32:39;;;;;;;;;;;24.30;99.70;;;;;;5052637;28;20112;-66
2022/07/24 07:35:05;;;;;;;6.50;5.45;;;24.40;99.60;;;;;;5052815;28;20262;-66
2022/07/24 07:37:30;;;;;;;;;;;24.50;99.20;;;;;;5052260;28;20057;-67
2022/07/24 07:39:57;;;;;;;6.47;5.68;;;24.70;98.80;;;;;;5055851;28;19905;-66
2022/07/24 07:42:23;;;;;;;7.47;6.15;;;24.70;98.40;;;;;;5053487;28;20021;-67
2022/07/24 07:44:48;;;;;;;;;;;24.90;98.10;;;;;;5052296;28;20025;-67
2022/07/24 07:47:14;;;;;;;7.80;5.85;;;24.90;97.90;;;;;;5058205;28;19919;-67
2022/07/24 07:49:39;;;;;;;;;;;25.00;97.70;;;;;;5056223;28;20143;-66
2022/07/24 07:52:05;;;;;;;7.22;5.85;;;25.00;97.40;;;;;;5053763;28;20353;-67
2022/07/24 07:54:30;;;;;;;;;;;25.10;97.50;;;;;;5054288;28;20087;-67
2022/07/24 07:56:56;;;;;;;7.95;5.93;;;25.20;97.30;;;;;;5053581;28;19904;-68
2022/07/24 07:59:22;;;;;;;;;;;25.30;97.00;;;;;;5054199;28;20032;-67
2022/07/24 08:01:47;;;;;;;6.47;4.97;;;25.40;96.70;;;;;;5051921;28;19927;-67
2022/07/24 08:04:13;;;;;;;;;;;25.40;96.20;;;;;;5052086;28;20452;-66
2022/07/24 08:06:38;;;;;;;7.32;5.70;;;25.50;96.10;;;;;;5052811;28;19908;-64
2022/07/24 08:09:04;;;;;;;8.07;5.25;;;25.70;96.00;;;;;;5053160;28;20022;-63
2022/07/24 08:11:29;;;;;;;;;;;25.90;95.50;;;;;;5053583;28;20327;-63
2022/07/24 08:13:55;;;;;;;7.85;6.10;;;26.20;95.10;;;;;;5052566;28;19912;-64
2022/07/24 08:16:21;;;;;;;6.93;4.85;;;26.70;94.80;;;;;;5052526;28;20041;-63
2022/07/24 08:18:47;;;;;;;6.88;5.03;;;28.10;93.40;;;;;;5052587;28;20052;-63
2022/07/24 08:21:15;;;;;;;7.22;5.35;;;29.90;91.10;;;;;;5052625;28;20029;-63
2022/07/24 08:23:41;;;;;;;7.72;5.47;;;32.30;86.40;;;;;;5052304;28;20428;-63
2022/07/24 08:26:06;;;;;;;6.60;5.10;;;33.70;81.20;;;;;;5055860;28;20480;-64
2022/07/24 08:28:32;;;;;;;8.50;5.00;;;34.80;76.70;;;;;;5056329;28;20071;-64
2022/07/24 08:30:57;;;;;;;5.65;4.88;;;35.80;74.00;;;;;;5055904;28;20021;-63
2022/07/24 08:33:23;;;;;;;6.93;4.90;;;37.00;71.00;;;;;;5056049;28;20024;-63
2022/07/24 08:35:48;;;;;;;8.88;4.80;;;37.90;67.50;;;;;;5056013;28;20326;-64
2022/07/24 08:38:14;;;;;;;6.40;5.50;;;38.40;65.90;;;;;;5056459;28;20082;-64
2022/07/24 08:40:40;;;;;;;5.55;4.85;;;38.30;65.00;;;;;;5055995;28;20029;-62
2022/07/24 08:43:08;;;;;;;7.72;5.15;;;38.90;64.80;;;;;;5056520;28;20445;-63
2022/07/24 08:45:36;;;;;;;5.55;5.07;;;40.10;62.60;;;;;;5056630;28;20032;-64
2022/07/24 08:48:06;;;;;;;5.78;4.75;;;41.00;60.80;;;;;;5056181;28;20025;-64
2022/07/24 08:50:34;;;;;;;5.65;5.15;;;41.80;58.40;;;;;;5055828;28;20480;-65
2022/07/24 08:53:02;;;;;;;5.00;4.55;;;41.20;57.90;;;;;;5056051;28;20021;-63
2022/07/24 08:55:28;;;;;;;6.78;4.78;;;40.90;56.70;;;;;;5055450;28;20035;-63
2022/07/24 08:57:58;;;;;;;5.32;4.72;;;40.00;58.10;;;;;;5055453;28;20100;-64
2022/07/24 09:00:25;;;;;;;5.13;4.63;;;40.10;58.00;;;;;;5055643;28;20021;-63
2022/07/24 09:02:50;;;;;;;6.75;6.15;;;40.20;57.70;;;;;;5055554;28;20024;-63
2022/07/24 09:05:16;;;;;;;5.60;4.88;;;40.20;57.30;;;;;;5055244;28;20029;-63
2022/07/24 09:07:41;;;;;;;5.22;4.72;;;39.90;57.40;;;;;;5055648;28;20437;-64
2022/07/24 09:10:10;;;;;;;5.78;4.60;;;40.20;57.00;;;;;;5055454;28;20025;-64
2022/07/24 09:12:44;;;;;;;6.55;4.63;;;41.30;56.20;;;;;;5054194;28;20554;-63
2022/07/24 09:15:26;;;;;;;4.63;4.22;;;42.00;55.20;;;;;;5055554;28;20025;-64
2022/07/24 09:17:58;;;;;;;6.07;4.38;;;42.60;54.60;;;;;;5056738;28;20436;-64
2022/07/24 09:20:29;;;;;;;5.25;4.75;;;43.20;53.70;;;;;;5056880;28;20053;-64
2022/07/24 09:23:00;;;;;;;5.55;5.00;;;43.00;52.30;;;;;;5056644;28;20021;-63
2022/07/24 09:25:27;;;;;;;5.30;4.80;;;41.60;54.50;;;;;;5054074;28;20524;-64
2022/07/24 09:27:58;;;;;;;6.55;4.85;;;42.20;53.00;;;;;;5055596;28;20032;-63
2022/07/24 09:30:34;;;;;;;5.97;4.85;;;41.90;53.60;;;;;;5055601;28;20504;-63
2022/07/24 09:33:05;;;;;;;6.05;4.47;;;41.70;53.70;;;;;;5054060;28;20029;-61
2022/07/24 09:35:39;;;;;;;4.82;4.43;;;41.70;52.70;;;;;;5054597;28;20118;-61
2022/07/24 09:38:10;;;;;;;5.22;4.75;;;42.00;52.70;;;;;;5055107;28;20025;-61
2022/07/24 09:40:38;;;;;;;6.30;4.45;;;42.10;52.10;;;;;;5054768;28;20025;-61
2022/07/24 09:43:16;;;;;;;5.78;4.60;;;42.10;52.30;;;;;;5054736;28;20389;-62
2022/07/24 09:46:08;;;;;;;4.82;4.32;;;42.30;52.10;;;;;;5055116;28;20370;-62
2022/07/24 09:48:39;;;;;;;5.55;4.40;;;43.20;51.40;;;;;;5055674;28;20409;-62
2022/07/24 09:51:13;;;;;;;7.40;5.18;;;44.00;50.60;;;;;;5056047;28;20025;-63
2022/07/24 09:53:40;;;;;;;4.72;4.32;;;42.40;50.90;;;;;;5055286;28;20078;-62
2022/07/24 09:56:08;;;;;;;5.57;4.40;;;41.70;51.50;;;;;;5054601;28;20044;-62
2022/07/24 09:58:43;;;;;;;4.90;4.40;;;42.00;51.80;;;;;;5054540;28;20039;-63
2022/07/24 10:01:09;;;;;;;4.72;4.32;;;42.30;51.20;;;;;;5054581;28;20036;-63
2022/07/24 10:03:38;;;;;;;5.45;4.95;;;42.60;51.30;;;;;;5055172;28;20029;-63
2022/07/24 10:06:06;;;;;;;4.93;4.43;;;42.80;50.40;;;;;;5054266;28;20037;-63
2022/07/24 10:08:33;;;;;;;6.00;4.40;;;42.40;50.40;;;;;;5054743;28;20028;-63
2022/07/24 10:10:59;;;;;;;5.97;4.80;;;42.30;50.50;;;;;;5053069;28;20047;-64
2022/07/24 10:13:27;;;;;;;5.10;4.70;;;41.90;50.70;;;;;;5054311;28;20389;-63
2022/07/24 10:16:11;;;;;;;5.60;5.07;;;42.50;50.50;;;;;;5054172;28;20057;-64
2022/07/24 10:18:52;;;;;;;5.22;4.72;;;43.00;50.50;;;;;;5054266;28;20021;-64
2022/07/24 10:21:20;;;;;;;5.28;4.63;;;43.30;49.50;;;;;;5054563;28;20040;-63
2022/07/24 10:24:09;;;;;;;4.75;4.20;;;43.20;49.70;;;;;;5054143;28;20017;-63
2022/07/24 10:26:48;;;;;;;5.32;4.30;;;43.50;48.90;;;;;;5054380;28;20122;-62
2022/07/24 10:29:17;;;;;;;4.53;4.20;;;42.30;48.80;;;;;;5054482;28;20096;-64
2022/07/24 10:31:51;;;;;;;4.93;4.13;;;41.90;49.80;;;;;;5053884;28;20036;-65
2022/07/24 10:34:39;;;;;;;6.65;4.28;;;42.30;50.20;;;;;;5053968;28;20017;-65
2022/07/24 10:37:36;;;;;;;5.30;4.82;;;42.80;49.60;;;;;;5052526;28;20124;-64
2022/07/24 10:40:04;;;;;;;4.88;4.15;;;40.60;50.90;;;;;;5054113;28;20367;-64
2022/07/24 10:42:30;;;;;;;6.07;4.13;;;41.10;50.20;;;;;;5053472;28;20053;-64
2022/07/24 10:45:18;;;;;;;4.65;4.10;;;42.10;49.20;;;;;;5053535;28;20063;-64
2022/07/24 10:47:45;;;;;;;4.25;3.85;;;41.80;48.60;;;;;;5053959;28;20027;-63
2022/07/24 10:50:14;;;;;;;4.70;4.18;;;42.10;49.00;;;;;;5053567;28;20029;-66
2022/07/24 10:52:41;;;;;;;6.22;4.38;;;42.20;49.10;;;;;;5052340;28;20105;-65
2022/07/24 10:55:28;;;;;;;4.75;4.28;;;42.50;49.00;;;;;;5053529;28;20041;-64
2022/07/24 10:57:59;;;;;;;5.38;3.88;;;42.90;47.50;;;;;;5053514;28;20025;-65
2022/07/24 11:00:46;;;;;;;5.22;3.90;;;42.10;47.70;;;;;;5053647;28;20029;-64
2022/07/24 11:03:21;;;;;;;4.53;3.80;;;42.80;47.90;;;;;;5053645;28;20029;-64
2022/07/24 11:06:07;;;;;;;4.05;3.53;;;43.40;47.60;;;;;;5053614;28;20037;-65
2022/07/24 11:08:38;;;;;;;4.38;3.97;;;43.40;46.90;;;;;;5053405;28;20029;-65
2022/07/24 11:11:20;;;;;;;3.72;3.42;;;42.80;46.80;;;;;;5053596;28;20044;-65
2022/07/24 11:13:52;;;;;;;5.20;4.10;;;42.20;47.00;;;;;;5053673;28;20481;-66
2022/07/24 11:16:19;;;;;;;4.03;3.72;;;40.60;47.50;;;;;;5053593;28;20112;-64
2022/07/24 11:18:54;;;;;;;4.32;3.92;;;37.60;49.90;;;;;;5054569;28;20070;-63
2022/07/24 11:21:31;;;;;;;4.68;4.20;;;36.00;52.30;;;;;;5053701;28;20108;-64
2022/07/24 11:24:19;;;;;;;4.80;4.40;;;34.30;54.00;;;;;;5053288;28;20040;-64
2022/07/24 11:27:03;;;;;;;5.25;3.95;;;34.00;54.90;;;;;;5053516;28;20453;-65
2022/07/24 11:29:35;;;;;;;5.90;4.70;;;33.30;55.90;;;;;;5053196;28;20043;-64
2022/07/24 11:32:04;;;;;;;4.57;4.18;;;33.30;56.10;;;;;;5053619;28;20021;-64
2022/07/24 11:34:31;;;;;;;4.18;3.75;;;33.00;55.80;;;;;;5052962;28;20070;-64
2022/07/24 11:36:58;;;;;;;6.40;4.05;;;32.90;56.00;;;;;;5053393;28;20386;-64
2022/07/24 11:39:33;;;;;;;5.18;4.20;;;32.70;56.80;;;;;;5053273;28;20104;-64
2022/07/24 11:42:01;;;;;;;6.37;4.67;;;32.60;56.70;;;;;;5053422;28;20021;-64
2022/07/24 11:44:30;;;;;;;4.43;4.00;;;32.50;57.30;;;;;;5053636;28;20033;-64
2022/07/24 11:46:57;;;;;;;5.00;4.60;;;32.40;57.90;;;;;;5052488;28;20036;-64
2022/07/24 11:49:24;;;;;;;4.45;4.03;;;32.30;58.30;;;;;;5051270;28;20022;-64
2022/07/24 11:51:51;;;;;;;5.22;4.32;;;32.20;58.20;;;;;;5053127;28;20041;-65
2022/07/24 11:54:28;;;;;;;4.95;3.60;;;32.30;57.80;;;;;;5053143;28;20021;-64
2022/07/24 11:56:55;;;;;;;5.50;4.35;;;31.90;57.80;;;;;;5053217;28;20029;-64
2022/07/24 11:59:22;;;;;;;4.45;3.53;;;32.00;58.00;;;;;;5055131;28;20470;-65
2022/07/24 12:01:48;;;;;;;4.35;3.95;;;32.00;57.80;;;;;;5057339;28;20036;-64
2022/07/24 12:04:22;;;;;;;4.82;4.03;;;32.10;57.30;;;;;;5056361;28;20025;-64
2022/07/24 12:06:48;;;;;;;5.70;4.20;;;32.20;57.50;;;;;;5057058;28;20025;-64
2022/07/24 12:09:13;;;;;;;6.05;4.57;;;32.20;57.50;;;;;;5056903;28;20021;-64
2022/07/24 12:11:39;;;;;;;5.55;4.30;;;32.20;57.90;;;;;;5056539;28;20171;-64
2022/07/24 12:14:18;;;;;;;4.53;4.03;;;32.20;57.70;;;;;;5056519;28;20032;-61
2022/07/24 12:16:51;;;;;;;6.55;5.07;;;32.10;57.80;;;;;;5056629;28;20141;-62
2022/07/24 12:19:19;;;;;;;5.53;4.05;;;32.00;58.20;;;;;;5056577;28;20423;-63
2022/07/24 12:21:47;;;;;;;4.47;4.07;;;32.00;58.10;;;;;;5055628;28;20033;-62
2022/07/24 12:24:13;;;;;;;4.38;3.95;;;31.80;57.70;;;;;;5060279;28;20031;-61
2022/07/24 12:26:56;;;;;;;7.68;4.47;;;31.80;58.20;;;;;;5061389;28;20056;-63
2022/07/24 12:29:24;;;;;;;5.30;3.70;;;32.00;58.60;;;;;;5056808;28;20048;-64
2022/07/24 12:31:52;;;;;;;7.63;4.30;;;31.90;58.20;;;;;;5056354;28;20021;-64
2022/07/24 12:34:18;;;;;;;6.38;4.55;;;31.70;58.10;;;;;;5056329;28;20025;-64
2022/07/24 12:36:44;;;;;;;4.82;4.00;;;31.70;58.50;;;;;;5056391;28;20488;-64
2022/07/24 12:39:11;;;;;;;8.48;4.93;;;31.80;58.70;;;;;;5057277;28;20123;-64
2022/07/24 12:41:45;;;;;;;5.03;4.13;;;31.80;58.60;;;;;;5057718;28;20021;-64
2022/07/24 12:44:11;;;;;;;5.18;4.00;;;31.80;58.40;;;;;;5059040;28;20025;-64
2022/07/24 12:46:40;;;;;;;4.95;4.20;;;32.00;58.40;;;;;;5055848;28;20535;-62
2022/07/24 12:49:13;;;;;;;8.60;6.78;;;32.10;58.30;;;;;;5056830;28;20053;-61
2022/07/24 12:51:49;;;;;;;4.28;3.88;;;32.10;58.50;;;;;;5057246;28;20028;-64
2022/07/24 12:54:25;;;;;;;4.90;4.13;;;32.10;58.30;;;;;;5057270;28;20025;-61
2022/07/24 12:56:54;;;;;;;5.82;3.72;;;32.10;58.30;;;;;;5056364;28;20036;-64